createdAt,value
2017-10-12T00:01:02.177Z,0
2017-10-12T00:02:12.668Z,0
2017-10-12T00:03:22.775Z,0
2017-10-12T00:04:32.867Z,0
2017-10-12T00:05:42.632Z,0
2017-10-12T00:06:53.080Z,0
2017-10-12T00:08:03.580Z,0
2017-10-12T00:09:14.027Z,0
2017-10-12T00:10:24.137Z,0
2017-10-12T00:11:34.567Z,0
2017-10-12T00:12:44.673Z,0
2017-10-12T00:13:55.175Z,0
2017-10-12T00:15:05.617Z,0
2017-10-12T00:16:16.065Z,0
2017-10-12T00:17:26.152Z,0
2017-10-12T00:18:36.247Z,0
2017-10-12T00:19:46.402Z,0
2017-10-12T00:20:56.503Z,0
2017-10-12T00:22:06.599Z,0
2017-10-12T00:23:17.041Z,0
2017-10-12T00:24:27.490Z,0
2017-10-12T00:25:37.637Z,0
2017-10-12T00:26:47.760Z,0
2017-10-12T00:27:57.847Z,0
2017-10-12T00:29:08.291Z,0
2017-10-12T00:30:18.389Z,0
2017-10-12T00:31:28.574Z,0
2017-10-12T00:32:39.037Z,0
2017-10-12T00:33:49.475Z,0
2017-10-12T00:34:59.928Z,0
2017-10-12T00:36:09.692Z,0
2017-10-12T00:37:20.181Z,0
2017-10-12T00:38:29.946Z,0
2017-10-12T00:39:40.046Z,0
2017-10-12T00:40:50.152Z,0
2017-10-12T00:42:00.581Z,0
2017-10-12T00:43:10.741Z,0
2017-10-12T00:44:20.494Z,0
2017-10-12T00:45:30.938Z,0
2017-10-12T00:46:41.057Z,0
2017-10-12T00:47:51.507Z,0
2017-10-12T00:49:01.995Z,0
2017-10-12T00:50:12.092Z,0
2017-10-12T00:51:22.533Z,0
2017-10-12T00:52:32.629Z,0
2017-10-12T00:53:42.746Z,0
2017-10-12T00:54:52.897Z,0
2017-10-12T00:56:02.918Z,0
2017-10-12T00:57:12.601Z,0
2017-10-12T00:58:22.620Z,0
2017-10-12T00:59:32.977Z,0
2017-10-12T01:00:43.383Z,0
2017-10-12T01:01:53.735Z,0
2017-10-12T01:03:03.749Z,0
2017-10-12T01:04:14.104Z,0
2017-10-12T01:05:24.456Z,0
2017-10-12T01:06:34.862Z,0
2017-10-12T01:07:45.223Z,0
2017-10-12T01:08:55.605Z,0
2017-10-12T01:10:05.960Z,0
2017-10-12T01:11:16.355Z,0
2017-10-12T01:12:26.138Z,0
2017-10-12T01:13:36.153Z,0
2017-10-12T01:14:46.506Z,0
2017-10-12T01:15:56.863Z,0
2017-10-12T01:17:07.215Z,0
2017-10-12T01:18:17.666Z,0
2017-10-12T01:19:27.688Z,0
2017-10-12T01:20:37.709Z,0
2017-10-12T01:21:47.733Z,0
2017-10-12T01:22:58.093Z,0
2017-10-12T01:24:07.829Z,0
2017-10-12T01:25:17.510Z,0
2017-10-12T01:26:27.871Z,0
2017-10-12T01:27:38.224Z,0
2017-10-12T01:28:48.578Z,0
2017-10-12T01:29:58.645Z,0
2017-10-12T01:31:08.999Z,0
2017-10-12T01:32:19.357Z,0
2017-10-12T01:33:29.374Z,0
2017-10-12T01:34:39.743Z,0
2017-10-12T01:35:49.809Z,0
2017-10-12T01:37:00.167Z,0
2017-10-12T01:38:10.188Z,0
2017-10-12T01:39:20.540Z,0
2017-10-12T01:40:30.558Z,0
2017-10-12T01:41:40.961Z,0
2017-10-12T01:42:50.975Z,0
2017-10-12T01:44:00.989Z,0
2017-10-12T01:45:11.008Z,0
2017-10-12T01:46:21.359Z,0
2017-10-12T01:47:31.781Z,0
2017-10-12T01:48:42.134Z,0
2017-10-12T01:49:52.162Z,0
2017-10-12T01:51:02.520Z,0
2017-10-12T01:52:12.563Z,0
2017-10-12T01:53:22.632Z,0
2017-10-12T01:54:32.661Z,0
2017-10-12T01:55:43.027Z,0
2017-10-12T01:56:53.418Z,0
2017-10-12T01:58:03.773Z,0
2017-10-12T01:59:14.193Z,0
2017-10-12T02:00:24.211Z,0
2017-10-12T02:01:33.896Z,0
2017-10-12T02:02:44.248Z,0
2017-10-12T02:03:54.601Z,0
2017-10-12T02:05:04.388Z,0
2017-10-12T02:06:14.746Z,0
2017-10-12T02:07:25.104Z,0
2017-10-12T02:08:34.786Z,0
2017-10-12T02:09:45.148Z,0
2017-10-12T02:10:55.215Z,0
2017-10-12T02:12:05.568Z,0
2017-10-12T02:13:15.585Z,0
2017-10-12T02:14:25.602Z,0
2017-10-12T02:15:35.284Z,0
2017-10-12T02:16:45.358Z,0
2017-10-12T02:17:55.712Z,0
2017-10-12T02:19:06.073Z,0
2017-10-12T02:20:16.435Z,0
2017-10-12T02:21:26.450Z,0
2017-10-12T02:22:36.524Z,0
2017-10-12T02:23:46.878Z,0
2017-10-12T02:24:57.239Z,0
2017-10-12T02:26:07.608Z,0
2017-10-12T02:27:17.633Z,0
2017-10-12T02:28:28.042Z,0
2017-10-12T02:29:37.723Z,0
2017-10-12T02:30:48.103Z,0
2017-10-12T02:31:58.473Z,0
2017-10-12T02:33:08.493Z,0
2017-10-12T02:34:18.898Z,0
2017-10-12T02:35:29.253Z,0
2017-10-12T02:36:38.951Z,0
2017-10-12T02:37:49.317Z,0
2017-10-12T02:38:59.342Z,0
2017-10-12T02:40:09.418Z,0
2017-10-12T02:41:19.775Z,0
2017-10-12T02:42:30.141Z,0
2017-10-12T02:43:40.169Z,0
2017-10-12T02:44:50.522Z,0
2017-10-12T02:46:00.595Z,0
2017-10-12T02:47:10.611Z,0
2017-10-12T02:48:20.968Z,0
2017-10-12T02:49:31.000Z,0
2017-10-12T02:50:41.377Z,0
2017-10-12T02:51:51.784Z,0
2017-10-12T02:53:02.139Z,0
2017-10-12T02:54:12.162Z,0
2017-10-12T02:55:22.516Z,0
2017-10-12T02:56:32.874Z,0
2017-10-12T02:57:42.941Z,0
2017-10-12T02:58:52.958Z,0
2017-10-12T03:00:02.977Z,0
2017-10-12T03:01:12.999Z,0
2017-10-12T03:02:23.048Z,0
2017-10-12T03:03:33.119Z,0
2017-10-12T03:04:43.475Z,0
2017-10-12T03:05:53.832Z,0
2017-10-12T03:07:04.197Z,0
2017-10-12T03:08:14.551Z,0
2017-10-12T03:09:24.953Z,0
2017-10-12T03:10:34.637Z,0
2017-10-12T03:11:44.987Z,0
2017-10-12T03:12:55.347Z,0
2017-10-12T03:14:05.705Z,0
2017-10-12T03:15:16.106Z,0
2017-10-12T03:16:25.799Z,0
2017-10-12T03:17:35.478Z,0
2017-10-12T03:18:45.495Z,0
2017-10-12T03:19:55.847Z,0
2017-10-12T03:21:05.970Z,0
2017-10-12T03:22:16.323Z,0
2017-10-12T03:23:26.716Z,0
2017-10-12T03:24:36.733Z,0
2017-10-12T03:25:47.084Z,0
2017-10-12T03:26:57.151Z,0
2017-10-12T03:28:07.177Z,0
2017-10-12T03:29:16.867Z,0
2017-10-12T03:30:26.899Z,0
2017-10-12T03:31:37.262Z,0
2017-10-12T03:32:47.668Z,0
2017-10-12T03:33:57.685Z,0
2017-10-12T03:35:07.707Z,0
2017-10-12T03:36:18.065Z,0
2017-10-12T03:37:28.085Z,0
2017-10-12T03:38:38.555Z,0
2017-10-12T03:39:48.574Z,0
2017-10-12T03:40:58.930Z,0
2017-10-12T03:42:08.648Z,0
2017-10-12T03:43:19.005Z,0
2017-10-12T03:44:29.418Z,0
2017-10-12T03:45:39.781Z,0
2017-10-12T03:46:49.798Z,0
2017-10-12T03:48:00.150Z,0
2017-10-12T03:49:10.195Z,0
2017-10-12T03:50:20.599Z,0
2017-10-12T03:51:30.279Z,0
2017-10-12T03:52:40.297Z,0
2017-10-12T03:53:50.659Z,0
2017-10-12T03:55:01.036Z,0
2017-10-12T03:56:10.768Z,0
2017-10-12T03:57:20.783Z,0
2017-10-12T03:58:30.814Z,0
2017-10-12T03:59:40.495Z,0
2017-10-12T04:00:50.517Z,0
2017-10-12T04:02:02.307Z,0
2017-10-12T04:03:12.659Z,0
2017-10-12T04:04:23.028Z,0
2017-10-12T04:05:33.380Z,0
2017-10-12T04:06:43.408Z,0
2017-10-12T04:07:53.479Z,0
2017-10-12T04:09:03.498Z,0
2017-10-12T04:10:13.519Z,0
2017-10-12T04:11:23.542Z,0
2017-10-12T04:12:33.910Z,0
2017-10-12T04:13:43.644Z,0
2017-10-12T04:14:53.995Z,0
2017-10-12T04:16:04.355Z,0
2017-10-12T04:17:14.720Z,0
2017-10-12T04:18:24.743Z,0
2017-10-12T04:19:34.813Z,0
2017-10-12T04:20:44.828Z,0
2017-10-12T04:21:54.858Z,0
2017-10-12T04:23:04.882Z,0
2017-10-12T04:24:15.248Z,0
2017-10-12T04:25:25.649Z,0
2017-10-12T04:26:35.669Z,0
2017-10-12T04:27:46.025Z,0
2017-10-12T04:28:56.390Z,0
2017-10-12T04:30:06.740Z,0
2017-10-12T04:31:16.811Z,0
2017-10-12T04:32:26.849Z,0
2017-10-12T04:33:36.532Z,0
2017-10-12T04:34:46.554Z,0
2017-10-12T04:35:56.569Z,0
2017-10-12T04:37:06.976Z,0
2017-10-12T04:38:17.005Z,0
2017-10-12T04:39:27.374Z,0
2017-10-12T04:40:37.408Z,0
2017-10-12T04:41:47.758Z,0
2017-10-12T04:42:58.163Z,0
2017-10-12T04:44:08.519Z,0
2017-10-12T04:45:18.544Z,0
2017-10-12T04:46:28.563Z,0
2017-10-12T04:47:38.580Z,0
2017-10-12T04:48:48.981Z,0
2017-10-12T04:49:59.336Z,0
2017-10-12T04:51:09.688Z,0
2017-10-12T04:52:20.078Z,0
2017-10-12T04:53:30.440Z,0
2017-10-12T04:54:40.814Z,0
2017-10-12T04:55:51.167Z,0
2017-10-12T04:57:01.525Z,0
2017-10-12T04:58:11.541Z,0
2017-10-12T04:59:21.891Z,0
2017-10-12T05:00:32.292Z,0
2017-10-12T05:01:42.649Z,0
2017-10-12T05:02:53.011Z,0
2017-10-12T05:04:03.035Z,0
2017-10-12T05:05:13.054Z,0
2017-10-12T05:06:23.469Z,0
2017-10-12T05:07:33.485Z,0
2017-10-12T05:08:43.174Z,0
2017-10-12T05:09:53.195Z,0
2017-10-12T05:11:03.212Z,0
2017-10-12T05:12:13.335Z,0
2017-10-12T05:13:23.700Z,0
2017-10-12T05:14:33.723Z,0
2017-10-12T05:15:44.085Z,0
2017-10-12T05:16:54.103Z,0
2017-10-12T05:18:04.563Z,0
2017-10-12T05:19:14.247Z,0
2017-10-12T05:20:24.601Z,0
2017-10-12T05:21:34.678Z,0
2017-10-12T05:22:45.033Z,0
2017-10-12T05:23:55.159Z,0
2017-10-12T05:25:05.512Z,0
2017-10-12T05:26:15.869Z,0
2017-10-12T05:27:25.921Z,0
2017-10-12T05:28:35.948Z,0
2017-10-12T05:29:46.017Z,0
2017-10-12T05:30:56.370Z,0
2017-10-12T05:32:06.385Z,0
2017-10-12T05:33:16.742Z,0
2017-10-12T05:34:27.095Z,0
2017-10-12T05:35:37.163Z,0
2017-10-12T05:36:47.198Z,0
2017-10-12T05:37:57.214Z,0
2017-10-12T05:39:07.234Z,0
2017-10-12T05:40:17.259Z,0
2017-10-12T05:41:27.331Z,0
2017-10-12T05:42:37.686Z,0
2017-10-12T05:43:47.704Z,0
2017-10-12T05:44:57.740Z,0
2017-10-12T05:46:07.760Z,0
2017-10-12T05:47:18.478Z,0
2017-10-12T05:48:28.863Z,0
2017-10-12T05:49:38.563Z,0
2017-10-12T05:50:48.601Z,0
2017-10-12T05:51:58.652Z,0
2017-10-12T05:53:09.012Z,0
2017-10-12T05:54:19.362Z,0
2017-10-12T05:55:29.404Z,0
2017-10-12T05:56:39.085Z,0
2017-10-12T05:57:48.767Z,0
2017-10-12T05:58:58.788Z,5
2017-10-12T06:00:09.149Z,5
2017-10-12T06:01:19.508Z,5
2017-10-12T06:02:29.861Z,5
2017-10-12T06:03:39.905Z,5
2017-10-12T06:04:49.939Z,5
2017-10-12T06:06:00.013Z,5
2017-10-12T06:07:09.712Z,5
2017-10-12T06:08:19.403Z,5
2017-10-12T06:09:29.759Z,5
2017-10-12T06:10:39.110Z,5
2017-10-12T06:11:49.469Z,5
2017-10-12T06:12:59.826Z,5
2017-10-12T06:14:09.586Z,5
2017-10-12T06:15:19.640Z,5
2017-10-12T06:16:29.393Z,5
2017-10-12T06:17:39.771Z,5
2017-10-12T06:18:49.819Z,10
2017-10-12T06:20:00.204Z,10
2017-10-12T06:21:10.266Z,10
2017-10-12T06:22:20.651Z,10
2017-10-12T06:23:31.027Z,10
2017-10-12T06:24:41.405Z,10
2017-10-12T06:25:51.105Z,10
2017-10-12T06:27:01.479Z,10
2017-10-12T06:28:11.515Z,10
2017-10-12T06:29:21.570Z,10
2017-10-12T06:30:31.273Z,10
2017-10-12T06:31:41.311Z,10
2017-10-12T06:32:51.359Z,10
2017-10-12T06:34:01.744Z,10
2017-10-12T06:35:12.129Z,10
2017-10-12T06:36:22.517Z,15
2017-10-12T06:37:32.572Z,15
2017-10-12T06:38:42.951Z,15
2017-10-12T06:39:53.330Z,15
2017-10-12T06:41:03.394Z,15
2017-10-12T06:42:13.102Z,15
2017-10-12T06:43:23.481Z,15
2017-10-12T06:44:32.847Z,15
2017-10-12T06:45:43.231Z,15
2017-10-12T06:46:53.275Z,15
2017-10-12T06:48:03.670Z,15
2017-10-12T06:49:14.051Z,15
2017-10-12T06:50:24.092Z,15
2017-10-12T06:51:34.468Z,15
2017-10-12T06:52:44.846Z,15
2017-10-12T06:53:55.264Z,15
2017-10-12T06:55:05.641Z,15
2017-10-12T06:56:15.680Z,15
2017-10-12T06:57:25.394Z,15
2017-10-12T06:58:35.772Z,10
2017-10-12T06:59:46.156Z,10
2017-10-12T07:00:56.186Z,10
2017-10-12T07:02:05.888Z,10
2017-10-12T07:03:15.585Z,10
2017-10-12T07:04:25.632Z,10
2017-10-12T07:05:35.728Z,10
2017-10-12T07:06:45.788Z,15
2017-10-12T07:07:56.159Z,15
2017-10-12T07:09:06.196Z,20
2017-10-12T07:10:16.234Z,20
2017-10-12T07:11:26.274Z,20
2017-10-12T07:12:36.653Z,20
2017-10-12T07:13:46.688Z,25
2017-10-12T07:14:57.062Z,25
2017-10-12T07:16:07.438Z,30
2017-10-12T07:17:17.824Z,35
2017-10-12T07:18:27.539Z,35
2017-10-12T07:19:37.918Z,40
2017-10-12T07:20:48.298Z,45
2017-10-12T07:21:58.353Z,45
2017-10-12T07:23:08.750Z,50
2017-10-12T07:24:19.144Z,55
2017-10-12T07:25:29.181Z,55
2017-10-12T07:26:39.246Z,55
2017-10-12T07:27:49.625Z,55
2017-10-12T07:29:00.010Z,60
2017-10-12T07:30:10.642Z,60
2017-10-12T07:31:21.024Z,60
2017-10-12T07:32:31.402Z,65
2017-10-12T07:33:41.438Z,65
2017-10-12T07:34:51.477Z,65
2017-10-12T07:36:01.850Z,65
2017-10-12T07:37:12.234Z,65
2017-10-12T07:38:22.293Z,60
2017-10-12T07:39:32.708Z,60
2017-10-12T07:40:42.416Z,60
2017-10-12T07:41:52.791Z,65
2017-10-12T07:43:03.168Z,65
2017-10-12T07:44:13.212Z,65
2017-10-12T07:45:22.912Z,65
2017-10-12T07:46:32.921Z,65
2017-10-12T07:47:42.936Z,65
2017-10-12T07:48:53.274Z,60
2017-10-12T07:50:03.616Z,60
2017-10-12T07:51:13.306Z,65
2017-10-12T07:52:22.982Z,60
2017-10-12T07:53:32.984Z,60
2017-10-12T07:54:43.359Z,60
2017-10-12T07:55:53.032Z,60
2017-10-12T07:57:03.373Z,60
2017-10-12T07:58:13.386Z,65
2017-10-12T07:59:23.777Z,65
2017-10-12T08:00:33.453Z,65
2017-10-12T08:01:43.121Z,65
2017-10-12T08:02:53.472Z,60
2017-10-12T08:04:03.477Z,60
2017-10-12T08:05:13.824Z,60
2017-10-12T08:06:24.166Z,55
2017-10-12T08:07:34.138Z,55
2017-10-12T08:08:44.511Z,55
2017-10-12T08:09:54.516Z,60
2017-10-12T08:11:04.524Z,60
2017-10-12T08:12:14.865Z,60
2017-10-12T08:13:25.310Z,65
2017-10-12T08:14:35.710Z,75
2017-10-12T08:15:45.047Z,80
2017-10-12T08:16:55.050Z,85
2017-10-12T08:18:04.723Z,95
2017-10-12T08:19:15.064Z,105
2017-10-12T08:20:25.408Z,110
2017-10-12T08:21:35.751Z,115
2017-10-12T08:22:46.097Z,115
2017-10-12T08:23:56.109Z,115
2017-10-12T08:25:06.114Z,115
2017-10-12T08:26:16.479Z,115
2017-10-12T08:27:26.822Z,115
2017-10-12T08:28:37.165Z,120
2017-10-12T08:29:47.174Z,120
2017-10-12T08:30:57.179Z,125
2017-10-12T08:32:07.533Z,125
2017-10-12T08:33:17.537Z,130
2017-10-12T08:34:27.891Z,140
2017-10-12T08:35:38.230Z,145
2017-10-12T08:36:48.569Z,155
2017-10-12T08:37:58.916Z,165
2017-10-12T08:39:08.932Z,170
2017-10-12T08:40:18.938Z,180
2017-10-12T08:41:29.284Z,185
2017-10-12T08:42:39.291Z,190
2017-10-12T08:43:49.642Z,195
2017-10-12T08:44:59.986Z,200
2017-10-12T08:46:10.336Z,205
2017-10-12T08:47:20.340Z,205
2017-10-12T08:48:29.677Z,205
2017-10-12T08:49:40.019Z,200
2017-10-12T08:50:49.693Z,200
2017-10-12T08:52:00.037Z,205
2017-10-12T08:53:09.707Z,200
2017-10-12T08:54:19.726Z,195
2017-10-12T08:55:29.736Z,195
2017-10-12T08:56:40.084Z,190
2017-10-12T08:57:50.096Z,190
2017-10-12T08:59:00.102Z,190
2017-10-12T09:00:09.926Z,190
2017-10-12T09:01:20.283Z,195
2017-10-12T09:02:30.291Z,195
2017-10-12T09:03:40.322Z,195
2017-10-12T09:04:50.000Z,190
2017-10-12T09:06:00.345Z,185
2017-10-12T09:07:10.693Z,185
2017-10-12T09:08:20.706Z,185
2017-10-12T09:09:30.717Z,190
2017-10-12T09:10:41.056Z,195
2017-10-12T09:11:51.076Z,195
2017-10-12T09:13:01.084Z,195
2017-10-12T09:14:11.097Z,200
2017-10-12T09:15:21.165Z,205
2017-10-12T09:16:31.503Z,205
2017-10-12T09:17:41.831Z,210
2017-10-12T09:18:51.838Z,215
2017-10-12T09:20:01.853Z,220
2017-10-12T09:21:11.863Z,235
2017-10-12T09:22:22.222Z,235
2017-10-12T09:23:32.560Z,255
2017-10-12T09:24:42.232Z,265
2017-10-12T09:25:52.268Z,270
2017-10-12T09:27:02.276Z,275
2017-10-12T09:28:12.288Z,280
2017-10-12T09:29:21.962Z,275
2017-10-12T09:30:31.979Z,275
2017-10-12T09:31:41.990Z,280
2017-10-12T09:32:52.340Z,270
2017-10-12T09:34:02.693Z,255
2017-10-12T09:35:13.041Z,250
2017-10-12T09:36:23.385Z,245
2017-10-12T09:37:33.737Z,240
2017-10-12T09:38:43.747Z,235
2017-10-12T09:39:54.094Z,235
2017-10-12T09:41:06.446Z,230
2017-10-12T09:42:16.794Z,225
2017-10-12T09:43:26.813Z,225
2017-10-12T09:44:37.153Z,220
2017-10-12T09:45:46.157Z,220
2017-10-12T09:46:56.170Z,225
2017-10-12T09:48:06.183Z,230
2017-10-12T09:49:15.868Z,245
2017-10-12T09:50:26.246Z,265
2017-10-12T09:51:36.601Z,275
2017-10-12T09:52:46.608Z,285
2017-10-12T09:53:56.618Z,275
2017-10-12T09:55:06.967Z,260
2017-10-12T09:56:17.309Z,245
2017-10-12T09:57:27.321Z,240
2017-10-12T09:58:37.689Z,240
2017-10-12T09:59:47.713Z,245
2017-10-12T10:00:58.058Z,245
2017-10-12T10:02:08.072Z,235
2017-10-12T10:03:18.426Z,230
2017-10-12T10:04:28.771Z,235
2017-10-12T10:05:39.114Z,255
2017-10-12T10:06:49.458Z,280
2017-10-12T10:07:59.801Z,300
2017-10-12T10:09:10.143Z,285
2017-10-12T10:10:20.497Z,265
2017-10-12T10:11:30.522Z,275
2017-10-12T10:12:40.864Z,280
2017-10-12T10:13:51.229Z,280
2017-10-12T10:15:01.244Z,285
2017-10-12T10:16:11.597Z,290
2017-10-12T10:17:21.940Z,280
2017-10-12T10:18:31.625Z,265
2017-10-12T10:19:41.642Z,270
2017-10-12T10:20:51.983Z,285
2017-10-12T10:22:01.998Z,285
2017-10-12T10:23:12.014Z,300
2017-10-12T10:24:22.356Z,335
2017-10-12T10:25:32.704Z,360
2017-10-12T10:26:42.710Z,325
2017-10-12T10:27:52.734Z,310
2017-10-12T10:29:02.730Z,330
2017-10-12T10:30:12.070Z,305
2017-10-12T10:31:22.419Z,275
2017-10-12T10:32:31.755Z,240
2017-10-12T10:33:41.428Z,225
2017-10-12T10:34:51.775Z,225
2017-10-12T10:36:02.122Z,230
2017-10-12T10:37:12.153Z,230
2017-10-12T10:38:22.160Z,230
2017-10-12T10:39:32.172Z,235
2017-10-12T10:40:41.533Z,240
2017-10-12T10:41:51.252Z,240
2017-10-12T10:43:01.285Z,240
2017-10-12T10:44:11.298Z,245
2017-10-12T10:45:21.308Z,260
2017-10-12T10:46:31.653Z,265
2017-10-12T10:47:42.000Z,270
2017-10-12T10:48:51.672Z,280
2017-10-12T10:50:02.020Z,290
2017-10-12T10:51:12.028Z,290
2017-10-12T10:52:22.042Z,270
2017-10-12T10:53:32.056Z,265
2017-10-12T10:54:42.420Z,270
2017-10-12T10:55:54.775Z,275
2017-10-12T10:57:04.779Z,280
2017-10-12T10:58:15.123Z,285
2017-10-12T10:59:25.136Z,275
2017-10-12T11:00:35.489Z,270
2017-10-12T11:01:45.167Z,275
2017-10-12T11:02:55.181Z,300
2017-10-12T11:04:05.522Z,330
2017-10-12T11:05:15.868Z,355
2017-10-12T11:06:25.881Z,360
2017-10-12T11:07:35.885Z,330
2017-10-12T11:08:45.564Z,300
2017-10-12T11:09:55.916Z,255
2017-10-12T11:11:05.928Z,225
2017-10-12T11:12:16.288Z,210
2017-10-12T11:13:26.634Z,190
2017-10-12T11:14:36.976Z,175
2017-10-12T11:15:46.984Z,165
2017-10-12T11:16:56.321Z,165
2017-10-12T11:18:06.670Z,160
2017-10-12T11:19:16.676Z,165
2017-10-12T11:20:26.346Z,160
2017-10-12T11:21:36.686Z,160
2017-10-12T11:22:46.691Z,160
2017-10-12T11:23:55.694Z,165
2017-10-12T11:25:05.365Z,175
2017-10-12T11:26:15.038Z,195
2017-10-12T11:27:24.719Z,215
2017-10-12T11:28:34.727Z,235
2017-10-12T11:29:45.074Z,265
2017-10-12T11:30:55.427Z,300
2017-10-12T11:32:05.781Z,325
2017-10-12T11:33:16.144Z,360
2017-10-12T11:34:25.824Z,375
2017-10-12T11:35:35.834Z,380
2017-10-12T11:36:46.526Z,395
2017-10-12T11:37:56.541Z,425
2017-10-12T11:39:05.878Z,455
2017-10-12T11:40:16.222Z,455
2017-10-12T11:41:26.243Z,460
2017-10-12T11:42:35.915Z,445
2017-10-12T11:43:46.266Z,420
2017-10-12T11:44:56.278Z,390
2017-10-12T11:46:05.961Z,400
2017-10-12T11:47:15.974Z,400
2017-10-12T11:48:25.645Z,395
2017-10-12T11:49:35.990Z,390
2017-10-12T11:50:46.327Z,395
2017-10-12T11:51:56.343Z,400
2017-10-12T11:53:06.352Z,385
2017-10-12T11:54:16.727Z,385
2017-10-12T11:55:26.399Z,400
2017-10-12T11:56:36.411Z,405
2017-10-12T11:57:46.759Z,395
2017-10-12T11:58:56.770Z,385
2017-10-12T12:00:06.809Z,380
2017-10-12T12:01:16.819Z,385
2017-10-12T12:02:26.502Z,395
2017-10-12T12:03:36.178Z,405
2017-10-12T12:04:46.520Z,405
2017-10-12T12:05:56.869Z,390
2017-10-12T12:07:06.880Z,390
2017-10-12T12:08:16.892Z,385
2017-10-12T12:09:26.229Z,385
2017-10-12T12:10:36.570Z,375
2017-10-12T12:11:46.924Z,375
2017-10-12T12:12:56.981Z,375
2017-10-12T12:14:07.325Z,380
2017-10-12T12:15:17.676Z,365
2017-10-12T12:16:27.687Z,350
2017-10-12T12:17:38.049Z,330
2017-10-12T12:18:48.089Z,320
2017-10-12T12:19:58.434Z,325
2017-10-12T12:21:08.802Z,335
2017-10-12T12:22:18.821Z,345
2017-10-12T12:23:29.205Z,365
2017-10-12T12:24:39.552Z,385
2017-10-12T12:25:49.900Z,380
2017-10-12T12:27:00.242Z,365
2017-10-12T12:28:10.593Z,345
2017-10-12T12:29:20.941Z,335
2017-10-12T12:30:31.291Z,325
2017-10-12T12:31:41.650Z,325
2017-10-12T12:32:51.691Z,330
2017-10-12T12:34:02.047Z,330
2017-10-12T12:35:12.058Z,330
2017-10-12T12:36:22.069Z,335
2017-10-12T12:37:32.412Z,335
2017-10-12T12:38:42.755Z,335
2017-10-12T12:39:52.769Z,325
2017-10-12T12:41:03.125Z,320
2017-10-12T12:42:13.135Z,320
2017-10-12T12:43:23.484Z,325
2017-10-12T12:44:33.828Z,325
2017-10-12T12:45:44.173Z,315
2017-10-12T12:46:54.183Z,310
2017-10-12T12:48:04.535Z,300
2017-10-12T12:49:14.879Z,295
2017-10-12T12:50:24.582Z,290
2017-10-12T12:51:34.930Z,285
2017-10-12T12:52:44.621Z,290
2017-10-12T12:53:54.633Z,295
2017-10-12T12:55:05.015Z,300
2017-10-12T12:56:15.026Z,310
2017-10-12T12:57:24.368Z,320
2017-10-12T12:58:34.388Z,325
2017-10-12T12:59:44.396Z,320
2017-10-12T13:00:53.399Z,325
2017-10-12T13:02:03.745Z,345
2017-10-12T13:03:14.103Z,355
2017-10-12T13:04:24.451Z,360
2017-10-12T13:05:34.130Z,370
2017-10-12T13:06:44.137Z,375
2017-10-12T13:07:54.146Z,385
2017-10-12T13:09:04.490Z,380
2017-10-12T13:10:14.838Z,375
2017-10-12T13:11:25.183Z,370
2017-10-12T13:12:35.188Z,370
2017-10-12T13:13:44.866Z,370
2017-10-12T13:14:55.213Z,365
2017-10-12T13:16:05.222Z,350
2017-10-12T13:17:15.257Z,335
2017-10-12T13:18:25.272Z,335
2017-10-12T13:19:35.614Z,340
2017-10-12T13:20:45.960Z,350
2017-10-12T13:21:55.984Z,345
2017-10-12T13:23:06.328Z,350
2017-10-12T13:24:16.672Z,355
2017-10-12T13:25:27.026Z,350
2017-10-12T13:26:37.371Z,350
2017-10-12T13:27:47.717Z,350
2017-10-12T13:28:58.106Z,355
2017-10-12T13:30:08.115Z,360
2017-10-12T13:31:18.464Z,360
2017-10-12T13:32:28.807Z,360
2017-10-12T13:33:39.148Z,425
2017-10-12T13:34:49.163Z,370
2017-10-12T13:35:59.513Z,420
2017-10-12T13:37:09.876Z,370
2017-10-12T13:38:19.882Z,395
2017-10-12T13:39:30.533Z,405
2017-10-12T13:40:40.211Z,360
2017-10-12T13:41:50.565Z,350
2017-10-12T13:43:00.909Z,355
2017-10-12T13:44:10.928Z,355
2017-10-12T13:45:20.607Z,365
2017-10-12T13:46:30.960Z,370
2017-10-12T13:47:40.992Z,380
2017-10-12T13:48:51.001Z,385
2017-10-12T13:50:01.012Z,380
2017-10-12T13:51:11.047Z,380
2017-10-12T13:52:20.725Z,375
2017-10-12T13:53:30.741Z,360
2017-10-12T13:54:40.761Z,330
2017-10-12T13:55:51.102Z,320
2017-10-12T13:57:01.444Z,300
2017-10-12T13:58:11.462Z,280
2017-10-12T13:59:21.806Z,285
2017-10-12T14:00:32.150Z,295
2017-10-12T14:01:42.162Z,295
2017-10-12T14:02:52.180Z,290
2017-10-12T14:04:02.533Z,290
2017-10-12T14:05:12.581Z,275
2017-10-12T14:06:22.925Z,250
2017-10-12T14:07:32.973Z,235
2017-10-12T14:08:43.328Z,220
2017-10-12T14:09:53.353Z,220
2017-10-12T14:11:03.707Z,230
2017-10-12T14:12:13.717Z,220
2017-10-12T14:13:23.745Z,200
2017-10-12T14:14:33.765Z,185
2017-10-12T14:15:43.468Z,175
2017-10-12T14:16:53.496Z,180
2017-10-12T14:18:03.845Z,185
2017-10-12T14:19:14.194Z,185
